Time;durP1;ratioP1;P1;durP2;ratioP2;P2;SDS_P1;SDS_P2;PMS_P1;PMS_P2;Temp;Humidity;BMP_temperature;BMP_pressure;BME280_temperature;BME280_humidity;BME280_pressure;Samples;Min_cycle;Max_cycle;Signal;HPM_P1;HPM_P2
2021/06/14 00:02:22;;;;;;;1.80;1.70;;;;;;;15.63;80.20;99170.05;1712768;83;21033;-77
2021/06/14 00:04:49;;;;;;;3.77;2.10;;;;;;;15.64;80.18;99162.73;1713793;83;22218;-78
2021/06/14 00:07:19;;;;;;;2.45;2.25;;;;;;;15.61;80.02;99155.20;1713551;83;21332;-83
2021/06/14 00:09:45;;;;;;;1.82;1.72;;;;;;;15.59;80.17;99156.84;1688805;83;21043;-77
2021/06/14 00:12:15;;;;;;;4.20;2.08;;;;;;;15.56;80.40;99169.64;1713407;83;21252;-77
2021/06/14 00:14:41;;;;;;;6.45;2.60;;;;;;;15.56;80.47;99163.41;1712634;83;20935;-76
2021/06/14 00:17:08;;;;;;;4.03;2.67;;;;;;;15.53;80.83;99166.17;1712374;83;21058;-77
2021/06/14 00:19:34;;;;;;;4.85;2.92;;;;;;;15.47;81.74;99171.38;1711573;82;21622;-77
2021/06/14 00:22:01;;;;;;;3.83;3.12;;;;;;;15.40;82.23;99169.57;1712334;83;21081;-77
2021/06/14 00:24:28;;;;;;;5.65;2.98;;;;;;;15.38;82.51;99170.98;1712702;83;21136;-78
2021/06/14 00:26:56;;;;;;;3.15;2.42;;;;;;;15.36;83.05;99178.04;1713805;83;21037;-76
2021/06/14 00:29:24;;;;;;;4.67;3.52;;;;;;;15.36;83.26;99176.69;1713657;83;20954;-80
2021/06/14 00:31:52;;;;;;;3.00;2.80;;;;;;;15.33;83.57;99176.47;1713922;83;21017;-80
2021/06/14 00:34:19;;;;;;;3.37;2.90;;;;;;;15.32;83.31;99182.44;1689170;83;21019;-77
2021/06/14 00:36:46;;;;;;;6.67;3.45;;;;;;;15.31;83.53;99178.11;1712740;83;21098;-80
2021/06/14 00:39:14;;;;;;;2.35;2.15;;;;;;;15.24;84.41;99181.75;1711211;82;50484;-79
2021/06/14 00:41:43;;;;;;;2.47;2.27;;;;;;;15.22;84.29;99181.22;1684023;85;20991;-79
2021/06/14 00:44:10;;;;;;;8.63;2.47;;;;;;;15.24;84.61;99175.78;1660862;85;21523;-78
2021/06/14 00:46:37;;;;;;;3.33;2.22;;;;;;;15.22;84.61;99176.61;1660747;85;20998;-79
2021/06/14 00:49:04;;;;;;;2.45;2.25;;;;;;;15.19;84.89;99175.86;1671814;83;21187;-77
2021/06/14 00:51:31;;;;;;;5.53;2.35;;;;;;;15.13;84.61;99185.69;1735795;82;21000;-78
2021/06/14 00:54:00;;;;;;;4.25;2.30;;;;;;;15.10;85.38;99171.39;1710335;82;21544;-78
2021/06/14 00:56:31;;;;;;;4.58;2.83;;;;;;;15.10;85.12;99177.61;1735112;81;20981;-79
2021/06/14 00:58:57;;;;;;;3.55;2.75;;;;;;;15.15;85.00;99172.67;1754770;81;21486;-81
2021/06/14 01:01:25;;;;;;;2.62;2.20;;;;;;;15.18;85.00;99177.49;1748232;81;21195;-78
2021/06/14 01:03:52;;;;;;;3.72;3.40;;;;;;;15.19;84.84;99175.86;1742973;81;21031;-78
2021/06/14 01:06:19;;;;;;;4.33;3.15;;;;;;;15.18;85.39;99168.82;1730024;82;20987;-76
2021/06/14 01:08:49;;;;;;;3.40;2.55;;;;;;;15.16;85.27;99171.00;1742681;82;21020;-76
2021/06/14 01:11:47;;;;;;;3.17;2.67;;;;;;;15.18;85.40;99170.72;1744972;81;21070;-76
2021/06/14 01:14:22;;;;;;;2.70;2.45;;;;;;;15.20;85.45;99173.95;1758831;81;21520;-82
2021/06/14 01:17:13;;;;;;;2.33;2.17;;;;;;;15.23;85.06;99172.81;1748633;81;21557;-74
2021/06/14 01:20:04;;;;;;;4.03;2.80;;;;;;;15.26;85.07;99176.28;1742394;81;20895;-75
2021/06/14 01:22:59;;;;;;;2.98;2.77;;;;;;;15.23;84.90;99170.66;1765379;81;20967;-77
2021/06/14 01:25:50;;;;;;;2.70;2.50;;;;;;;15.24;85.14;99174.98;1704124;81;21550;-77
2021/06/14 01:28:19;;;;;;;4.22;2.62;;;;;;;15.25;85.21;99173.89;1746096;81;20976;-78
2021/06/14 01:30:47;;;;;;;3.90;2.40;;;;;;;15.23;85.36;99178.23;1773609;81;20967;-76
2021/06/14 01:33:18;;;;;;;4.75;2.90;;;;;;;15.25;85.31;99181.44;1746053;80;20939;-77
2021/06/14 01:35:58;;;;;;;2.42;2.22;;;;;;;15.32;85.34;99188.41;1767657;80;21004;-77
2021/06/14 01:38:28;;;;;;;3.75;3.45;;;;;;;15.34;85.18;99188.92;1723410;81;21381;-75
2021/06/14 01:40:59;;;;;;;2.15;2.05;;;;;;;15.31;85.41;99180.01;1742946;81;21062;-79
2021/06/14 01:43:30;;;;;;;2.60;2.42;;;;;;;15.22;85.72;99172.55;1722025;82;21510;-82
2021/06/14 01:46:05;;;;;;;2.45;2.22;;;;;;;15.25;85.79;99183.37;1723947;80;20948;-81
2021/06/14 01:48:31;;;;;;;6.10;2.55;;;;;;;15.28;85.90;99189.55;1740912;81;21512;-82
2021/06/14 01:50:58;;;;;;;2.98;2.77;;;;;;;15.33;85.81;99203.02;1743942;80;21022;-84
2021/06/14 01:53:26;;;;;;;3.15;2.12;;;;;;;15.38;85.55;99200.23;1765578;80;21046;-82
2021/06/14 01:55:55;;;;;;;2.52;2.33;;;;;;;15.44;85.28;99203.69;1741421;80;20899;-77
2021/06/14 01:58:22;;;;;;;2.85;2.65;;;;;;;15.47;85.00;99203.09;1751446;80;21066;-75
2021/06/14 02:00:56;;;;;;;3.05;2.72;;;;;;;15.48;84.67;99201.45;1713931;82;21086;-76
2021/06/14 02:03:25;;;;;;;2.20;2.10;;;;;;;15.48;84.44;99196.58;1724596;81;21075;-76
2021/06/14 02:05:53;;;;;;;2.70;2.50;;;;;;;15.51;84.33;99206.30;1755749;80;21148;-73
2021/06/14 02:08:20;;;;;;;3.65;2.62;;;;;;;15.54;84.25;99207.64;1775708;80;20925;-76
2021/06/14 02:10:47;;;;;;;3.12;2.83;;;;;;;15.56;83.67;99211.66;1776953;80;21348;-74
2021/06/14 02:13:16;;;;;;;4.17;2.47;;;;;;;15.58;83.63;99220.31;1776632;80;21028;-73
2021/06/14 02:15:42;;;;;;;2.95;2.75;;;;;;;15.58;83.53;99214.08;1744756;80;21736;-73
2021/06/14 02:18:10;;;;;;;2.83;2.62;;;;;;;15.59;83.29;99220.54;1743522;82;21087;-73
2021/06/14 02:20:41;;;;;;;4.55;2.80;;;;;;;15.59;83.36;99224.61;1743165;82;21046;-73
2021/06/14 02:23:08;;;;;;;4.37;2.58;;;;;;;15.61;83.23;99227.84;1743459;82;21027;-72
2021/06/14 02:25:34;;;;;;;3.55;3.22;;;;;;;15.63;83.03;99227.55;1742042;80;21077;-74
2021/06/14 02:28:01;;;;;;;3.47;3.20;;;;;;;15.59;82.81;99230.03;1756665;80;21039;-76
2021/06/14 02:30:28;;;;;;;2.98;2.70;;;;;;;15.61;82.89;99227.03;1743153;82;21017;-73
2021/06/14 02:32:57;;;;;;;3.30;3.05;;;;;;;15.65;82.58;99230.22;1743459;82;20970;-75
2021/06/14 02:35:23;;;;;;;3.87;3.27;;;;;;;15.65;82.61;99224.80;1736529;80;21070;-74
2021/06/14 02:37:54;;;;;;;7.15;3.12;;;;;;;15.67;82.39;99222.61;1773813;80;21502;-73
2021/06/14 02:40:23;;;;;;;4.28;3.98;;;;;;;15.69;82.42;99225.81;1723449;80;21017;-73
2021/06/14 02:42:50;;;;;;;3.05;2.85;;;;;;;15.69;82.33;99227.16;1744209;80;21319;-72
2021/06/14 02:45:17;;;;;;;2.90;2.60;;;;;;;15.68;82.42;99225.55;1740995;80;21030;-73
2021/06/14 02:47:46;;;;;;;6.35;3.08;;;;;;;15.71;82.29;99228.23;1743235;82;21042;-74
2021/06/14 02:50:14;;;;;;;3.70;3.00;;;;;;;15.74;82.10;99227.64;1735476;81;21564;-74
2021/06/14 02:52:42;;;;;;;5.95;3.35;;;;;;;15.80;82.00;99237.31;1693611;83;21531;-73
2021/06/14 02:55:13;;;;;;;6.15;3.52;;;;;;;15.85;81.91;99235.07;1682347;84;21124;-73
2021/06/14 02:57:46;;;;;;;6.08;3.50;;;;;;;15.87;81.49;99232.88;1704422;84;20987;-74
2021/06/14 03:00:13;;;;;;;4.22;3.85;;;;;;;15.90;81.34;99237.70;1683614;84;21039;-74
2021/06/14 03:02:41;;;;;;;6.65;3.67;;;;;;;15.94;81.12;99239.53;1705030;83;20995;-74
2021/06/14 03:05:10;;;;;;;5.05;3.72;;;;;;;15.96;81.29;99244.12;1735535;81;21035;-74
2021/06/14 03:07:37;;;;;;;8.53;3.70;;;;;;;16.02;81.04;99242.10;1730329;81;21055;-74
2021/06/14 03:10:09;;;;;;;3.70;3.40;;;;;;;16.01;80.87;99242.69;1706826;81;20983;-75
2021/06/14 03:12:36;;;;;;;4.28;3.83;;;;;;;16.03;80.80;99242.36;1754211;81;21026;-74
2021/06/14 03:15:06;;;;;;;5.03;3.65;;;;;;;16.03;80.71;99245.88;1749311;81;21497;-76
2021/06/14 03:17:34;;;;;;;3.30;3.00;;;;;;;16.04;80.62;99254.83;1732237;81;21077;-76
2021/06/14 03:20:01;;;;;;;3.30;2.95;;;;;;;16.05;80.57;99249.67;1730851;82;21697;-77
2021/06/14 03:22:28;;;;;;;4.35;3.22;;;;;;;16.06;80.40;99246.67;1749650;81;20967;-77
2021/06/14 03:24:55;;;;;;;3.58;3.27;;;;;;;16.05;80.46;99249.67;1724683;82;21003;-75
2021/06/14 03:27:22;;;;;;;3.25;2.95;;;;;;;16.05;80.43;99253.73;1726717;83;21012;-75
2021/06/14 03:29:49;;;;;;;6.05;3.62;;;;;;;16.07;80.61;99258.30;1727443;82;21016;-77
2021/06/14 03:32:16;;;;;;;5.03;2.92;;;;;;;16.09;80.49;99268.31;1741568;82;21941;-80
2021/06/14 03:34:43;;;;;;;5.55;3.95;;;;;;;16.16;80.43;99263.88;1737968;81;21046;-76
2021/06/14 03:37:10;;;;;;;5.10;3.25;;;;;;;16.15;80.48;99252.22;1750090;81;21010;-76
2021/06/14 03:39:38;;;;;;;4.15;3.75;;;;;;;16.14;80.31;99265.52;1750122;82;21139;-76
2021/06/14 03:42:08;;;;;;;6.53;2.95;;;;;;;16.11;80.46;99268.26;1749370;81;21054;-77
2021/06/14 03:44:36;;;;;;;3.85;2.70;;;;;;;16.13;80.72;99266.62;1748559;82;21145;-76
2021/06/14 03:47:03;;;;;;;2.90;2.70;;;;;;;16.17;80.58;99274.41;1728878;82;21044;-77
2021/06/14 03:49:30;;;;;;;5.37;3.80;;;;;;;16.20;80.56;99267.61;1718712;83;21579;-77
2021/06/14 03:51:58;;;;;;;3.17;2.98;;;;;;;16.21;80.37;99271.36;1712488;83;20988;-77
2021/06/14 03:54:24;;;;;;;3.35;2.85;;;;;;;16.25;80.41;99264.26;1722864;83;20971;-78
2021/06/14 03:56:51;;;;;;;2.95;2.65;;;;;;;16.29;80.28;99261.75;1719164;83;21210;-77
2021/06/14 03:59:19;;;;;;;6.85;3.55;;;;;;;16.29;80.04;99259.84;1725749;82;20908;-78
2021/06/14 04:01:47;;;;;;;3.85;3.33;;;;;;;16.29;79.99;99265.82;1726406;82;21015;-76
2021/06/14 04:06:48;;;;;;;3.90;3.58;;;;;;;16.30;80.08;99276.94;1720183;83;21532;-75
2021/06/14 04:09:15;;;;;;;5.10;3.22;;;;;;;16.32;80.28;99274.71;1734816;82;21962;-77
2021/06/14 04:11:42;;;;;;;6.10;2.95;;;;;;;16.29;80.04;99284.27;1730509;81;21072;-75
2021/06/14 04:14:10;;;;;;;7.58;3.33;;;;;;;16.31;80.19;99286.11;1730076;82;21062;-74
2021/06/14 04:16:37;;;;;;;3.60;2.87;;;;;;;16.37;80.48;99276.80;1738115;81;20975;-76
2021/06/14 04:19:03;;;;;;;5.78;4.33;;;;;;;16.37;80.42;99283.58;1738465;81;21007;-77
2021/06/14 04:21:30;;;;;;;4.83;3.65;;;;;;;16.41;80.24;99279.70;1744714;81;21147;-75
2021/06/14 04:23:56;;;;;;;3.70;3.27;;;;;;;16.43;80.09;99279.68;1738607;82;20979;-75
2021/06/14 04:26:23;;;;;;;6.00;2.72;;;;;;;16.50;80.06;99280.08;1736768;82;20987;-78
2021/06/14 04:28:49;;;;;;;3.65;3.35;;;;;;;16.55;79.61;99288.69;1737328;82;21516;-77
2021/06/14 04:31:15;;;;;;;3.95;3.65;;;;;;;16.56;79.69;99289.75;1749881;81;21034;-76
2021/06/14 04:33:42;;;;;;;3.77;3.47;;;;;;;16.55;79.45;99281.91;1762501;81;21043;-74
2021/06/14 04:36:08;;;;;;;3.85;2.80;;;;;;;16.55;79.52;99294.12;1742628;81;21034;-75
2021/06/14 04:38:35;;;;;;;3.60;3.15;;;;;;;16.52;80.02;99288.75;1736808;82;21054;-73
2021/06/14 04:41:01;;;;;;;4.10;2.85;;;;;;;16.55;80.12;99285.97;1743784;81;20979;-74
2021/06/14 04:43:28;;;;;;;3.72;2.87;;;;;;;16.57;80.10;99299.52;1733370;82;21600;-76
2021/06/14 04:45:54;;;;;;;6.95;3.30;;;;;;;16.65;80.01;99298.59;1739080;81;22129;-76
2021/06/14 04:48:21;;;;;;;3.22;2.98;;;;;;;16.71;79.98;99300.93;1715692;81;21038;-76
2021/06/14 04:50:48;;;;;;;6.20;3.05;;;;;;;16.78;79.75;99305.43;1769885;80;20996;-77
2021/06/14 04:53:16;;;;;;;7.50;4.28;;;;;;;16.84;79.82;99317.79;1735963;82;21030;-76
2021/06/14 04:55:43;;;;;;;3.67;2.72;;;;;;;16.92;79.77;99306.25;1743178;82;21025;-77
2021/06/14 04:58:10;;;;;;;2.77;2.55;;;;;;;16.99;79.45;99313.43;1743380;82;21491;-78
2021/06/14 05:00:36;;;;;;;5.10;3.00;;;;;;;17.02;79.09;99314.76;1715436;82;20955;-75
2021/06/14 05:03:04;;;;;;;4.00;3.50;;;;;;;17.08;78.60;99313.53;1743361;82;21030;-75
2021/06/14 05:05:31;;;;;;;3.95;3.52;;;;;;;17.09;78.64;99317.87;1715880;80;21558;-76
2021/06/14 05:07:59;;;;;;;3.52;3.22;;;;;;;17.12;78.81;99318.61;1743052;82;21037;-76
2021/06/14 05:10:26;;;;;;;3.25;3.05;;;;;;;17.16;79.00;99326.98;1742225;80;21098;-77
2021/06/14 05:12:52;;;;;;;15.30;5.20;;;;;;;17.23;79.22;99332.81;1741508;81;21368;-77
2021/06/14 05:15:19;;;;;;;4.65;3.37;;;;;;;17.32;79.54;99341.31;1746838;80;21024;-75
2021/06/14 05:17:45;;;;;;;5.30;3.27;;;;;;;17.42;79.36;99345.19;1743103;82;21097;-76
2021/06/14 05:20:13;;;;;;;3.50;3.20;;;;;;;17.50;79.02;99344.24;1759169;80;21057;-77
2021/06/14 05:22:40;;;;;;;8.45;3.12;;;;;;;17.53;78.82;99344.98;1747846;80;21140;-76
2021/06/14 05:25:08;;;;;;;4.30;3.47;;;;;;;17.56;79.02;99345.17;1747985;80;21007;-77
2021/06/14 05:27:35;;;;;;;4.78;3.25;;;;;;;17.61;79.01;99342.38;1743074;82;21054;-76
2021/06/14 05:30:02;;;;;;;8.93;3.60;;;;;;;17.70;79.24;99345.18;1711082;82;20923;-77
2021/06/14 05:32:29;;;;;;;7.33;4.58;;;;;;;17.78;79.29;99348.56;1734009;80;21036;-77
2021/06/14 05:34:55;;;;;;;6.83;4.72;;;;;;;17.81;79.05;99346.03;1743316;80;21063;-77
2021/06/14 05:37:22;;;;;;;4.95;4.45;;;;;;;17.86;78.97;99341.84;1714339;82;21055;-75
2021/06/14 05:39:48;;;;;;;7.60;5.17;;;;;;;17.92;79.21;99341.17;1714266;82;21020;-78
2021/06/14 05:42:15;;;;;;;5.83;4.60;;;;;;;17.98;79.07;99348.12;1755182;80;21068;-78
2021/06/14 05:44:42;;;;;;;4.55;4.15;;;;;;;18.04;78.78;99346.87;1743616;80;21123;-76
2021/06/14 05:47:09;;;;;;;5.12;4.62;;;;;;;18.08;78.71;99344.36;1716092;82;22011;-78
2021/06/14 05:49:36;;;;;;;6.10;3.77;;;;;;;18.08;78.74;99350.58;1739725;82;21609;-78
2021/06/14 05:52:03;;;;;;;6.03;4.65;;;;;;;18.11;78.83;99352.70;1742655;81;20915;-75
2021/06/14 05:54:30;;;;;;;4.25;3.75;;;;;;;18.17;79.06;99361.02;1744016;81;20971;-76
2021/06/14 05:56:56;;;;;;;6.45;4.62;;;;;;;18.23;78.93;99357.03;1732290;81;21325;-77
2021/06/14 05:59:22;;;;;;;4.83;4.10;;;;;;;18.27;78.72;99356.66;1729181;83;21258;-78
2021/06/14 06:01:49;;;;;;;3.85;3.55;;;;;;;18.33;78.62;99359.27;1739695;81;20967;-79
2021/06/14 06:04:17;;;;;;;5.95;4.08;;;;;;;18.37;78.98;99354.84;1754755;81;21471;-78
2021/06/14 06:06:43;;;;;;;4.85;4.08;;;;;;;18.43;78.44;99359.83;1709045;81;20963;-76
2021/06/14 06:09:10;;;;;;;6.40;3.55;;;;;;;18.50;78.38;99364.86;1739383;81;21497;-78
2021/06/14 06:11:36;;;;;;;4.22;3.70;;;;;;;18.57;78.13;99363.88;1737145;81;21068;-84
2021/06/14 06:14:03;;;;;;;4.12;3.72;;;;;;;18.63;77.81;99365.37;1733010;81;21029;-75
2021/06/14 06:16:30;;;;;;;6.05;4.17;;;;;;;18.67;77.92;99369.08;1754572;81;20958;-76
2021/06/14 06:18:57;;;;;;;4.80;3.87;;;;;;;18.73;77.71;99370.56;1730996;81;20966;-75
2021/06/14 06:21:23;;;;;;;6.67;4.83;;;;;;;18.76;77.42;99365.84;1706024;81;20994;-75
2021/06/14 06:23:50;;;;;;;4.75;4.33;;;;;;;18.77;77.24;99378.36;1739989;81;22308;-77
2021/06/14 06:26:16;;;;;;;7.80;4.65;;;;;;;18.76;77.10;99369.13;1729323;81;21489;-77
2021/06/14 06:28:43;;;;;;;5.72;3.95;;;;;;;18.77;77.17;99381.08;1718305;81;20974;-75
2021/06/14 06:31:10;;;;;;;3.83;3.47;;;;;;;18.81;77.56;99380.70;1754676;81;20978;-76
2021/06/14 06:33:37;;;;;;;8.70;3.62;;;;;;;18.87;77.41;99384.11;1754474;81;20987;-75
2021/06/14 06:36:06;;;;;;;4.03;3.50;;;;;;;18.93;77.37;99393.22;1753707;81;21102;-78
2021/06/14 06:38:32;;;;;;;3.65;3.35;;;;;;;19.01;76.66;99395.73;1732759;81;21072;-79
2021/06/14 06:40:59;;;;;;;7.12;3.85;;;;;;;19.07;76.47;99391.77;1734332;81;21045;-78
2021/06/14 06:43:25;;;;;;;5.12;4.20;;;;;;;19.14;76.56;99394.27;1730378;82;21008;-78
2021/06/14 06:45:52;;;;;;;6.35;4.30;;;;;;;19.18;76.43;99396.39;1706030;83;21066;-80
2021/06/14 06:48:19;;;;;;;5.47;3.98;;;;;;;19.18;76.55;99393.11;1736034;81;21123;-79
2021/06/14 06:50:45;;;;;;;6.35;4.33;;;;;;;19.22;76.39;99402.27;1730838;82;21095;-76
2021/06/14 06:53:13;;;;;;;4.25;3.85;;;;;;;19.27;76.25;99404.05;1741075;82;20983;-81
2021/06/14 06:55:40;;;;;;;6.40;4.80;;;;;;;19.32;76.13;99401.19;1685080;84;21515;-77
2021/06/14 06:58:06;;;;;;;5.75;4.08;;;;;;;19.33;76.14;99405.53;1694994;82;21528;-75
2021/06/14 07:00:32;;;;;;;4.08;3.67;;;;;;;19.35;76.25;99406.81;1712719;82;21101;-76
2021/06/14 07:03:00;;;;;;;3.92;3.62;;;;;;;19.40;76.64;99405.31;1689235;83;21062;-75
2021/06/14 07:05:26;;;;;;;7.83;3.50;;;;;;;19.48;76.65;99405.11;1683953;82;20951;-79
2021/06/14 07:07:53;;;;;;;8.30;4.15;;;;;;;19.54;75.65;99411.49;1719253;82;20937;-77
2021/06/14 07:10:19;;;;;;;3.98;3.65;;;;;;;19.55;75.38;99413.66;1686218;85;21011;-77
2021/06/14 07:12:46;;;;;;;4.85;3.65;;;;;;;19.58;75.43;99416.55;1713547;83;21472;-77
2021/06/14 07:15:13;;;;;;;3.47;3.17;;;;;;;19.64;75.61;99418.58;1694390;83;20985;-78
2021/06/14 07:17:42;;;;;;;4.10;3.70;;;;;;;19.70;75.63;99425.52;1685110;84;21000;-76
2021/06/14 07:20:13;;;;;;;4.80;3.60;;;;;;;19.75;75.34;99435.48;1655901;84;21119;-74
2021/06/14 07:22:41;;;;;;;5.45;4.12;;;;;;;19.83;75.52;99433.33;1657416;86;21013;-76
2021/06/14 07:25:08;;;;;;;7.85;4.45;;;;;;;19.94;75.38;99441.47;1658508;85;22246;-76
2021/06/14 07:27:35;;;;;;;5.20;3.90;;;;;;;20.05;74.80;99445.49;1654317;86;20948;-76
2021/06/14 07:30:03;;;;;;;3.95;3.55;;;;;;;20.10;74.31;99441.80;1683196;83;21043;-75
2021/06/14 07:32:30;;;;;;;7.62;5.62;;;;;;;20.16;74.78;99444.64;1660903;85;21018;-75
2021/06/14 07:34:56;;;;;;;4.58;2.95;;;;;;;20.16;74.78;99444.64;1683478;85;21117;-77
2021/06/14 07:37:23;;;;;;;3.62;3.33;;;;;;;20.24;73.65;99454.79;1683611;85;21118;-76
2021/06/14 07:39:50;;;;;;;7.85;3.10;;;;;;;20.39;73.57;99459.23;1705612;83;21046;-78
2021/06/14 07:42:17;;;;;;;7.90;3.12;;;;;;;20.39;73.57;99459.23;1689327;83;21010;-75
2021/06/14 07:44:43;;;;;;;6.67;3.70;;;;;;;20.48;72.86;99461.97;1711449;83;20996;-76
2021/06/14 07:47:11;;;;;;;5.58;3.62;;;;;;;20.57;72.62;99462.00;1695008;83;21121;-78
2021/06/14 07:49:39;;;;;;;5.25;3.92;;;;;;;20.66;72.33;99462.23;1683489;85;21022;-76
2021/06/14 07:52:06;;;;;;;3.95;3.58;;;;;;;20.77;72.01;99464.06;1710551;83;20986;-77
2021/06/14 07:54:34;;;;;;;4.53;2.85;;;;;;;20.88;72.25;99455.22;1742833;82;21027;-77
2021/06/14 07:57:00;;;;;;;3.08;2.85;;;;;;;21.02;71.53;99464.60;1716261;81;21001;-77
2021/06/14 07:59:27;;;;;;;7.67;3.92;;;;;;;21.14;70.47;99466.16;1742237;82;21043;-75
2021/06/14 08:01:54;;;;;;;5.55;3.98;;;;;;;21.17;69.31;99466.05;1743517;82;21114;-76
2021/06/14 08:04:20;;;;;;;7.12;4.35;;;;;;;21.19;70.06;99464.62;1713261;82;21248;-75
2021/06/14 08:06:51;;;;;;;8.23;4.45;;;;;;;21.23;70.76;99468.86;1734544;82;21537;-78
2021/06/14 08:09:24;;;;;;;4.35;3.95;;;;;;;21.28;71.05;99465.40;1710976;82;21048;-78
2021/06/14 08:11:48;;;;;;;11.35;4.97;;;;;;;21.31;70.92;99470.77;1736462;81;21082;-76
2021/06/14 08:14:15;;;;;;;4.83;3.83;;;;;;;21.36;70.75;99468.42;1740084;81;21946;-75
2021/06/14 08:16:43;;;;;;;4.90;4.00;;;;;;;21.42;70.52;99465.75;1739046;82;21539;-86
2021/06/14 08:19:21;;;;;;;3.92;3.52;;;;;;;21.46;70.30;99470.24;1708905;82;21228;-77
2021/06/14 08:21:48;;;;;;;3.85;3.40;;;;;;;21.52;70.04;99479.09;1686382;82;21624;-75
2021/06/14 08:26:54;;;;;;;5.97;3.92;;;;;;;21.53;69.73;99474.66;1734887;81;21089;-75
2021/06/14 08:29:21;;;;;;;5.92;3.92;;;;;;;21.59;69.88;99471.96;1734940;82;21187;-75
2021/06/14 08:31:48;;;;;;;8.03;4.75;;;;;;;21.65;69.32;99478.06;1735601;82;21527;-74
2021/06/14 08:34:15;;;;;;;4.60;4.20;;;;;;;21.69;69.31;99482.55;1720283;81;21006;-74
2021/06/14 08:36:42;;;;;;;3.85;3.55;;;;;;;21.79;69.39;99487.42;1714537;82;21034;-78
2021/06/14 08:39:12;;;;;;;7.12;3.70;;;;;;;21.85;68.98;99480.08;1742419;81;21969;-77
2021/06/14 08:41:40;;;;;;;3.60;3.40;;;;;;;21.96;68.84;99495.61;1717618;82;21045;-78
2021/06/14 08:44:08;;;;;;;4.67;3.12;;;;;;;22.08;67.94;99490.21;1767575;81;20986;-78
2021/06/14 08:46:35;;;;;;;4.15;3.62;;;;;;;22.19;67.74;99488.70;1764943;81;21093;-75
2021/06/14 08:49:03;;;;;;;5.03;3.00;;;;;;;22.28;67.15;99493.56;1745573;81;21057;-76
2021/06/14 08:51:30;;;;;;;3.72;3.42;;;;;;;22.28;67.41;99495.50;1746081;81;21532;-76
2021/06/14 08:53:59;;;;;;;3.25;2.95;;;;;;;22.28;67.74;99506.45;1742957;82;21071;-79
2021/06/14 08:56:27;;;;;;;10.58;3.98;;;;;;;22.30;67.83;99509.09;1697941;82;22279;-75
2021/06/14 08:58:54;;;;;;;8.95;5.78;;;;;;;22.41;67.80;99508.95;1713630;82;21525;-76
2021/06/14 09:01:21;;;;;;;5.50;3.30;;;;;;;22.51;67.07;99515.41;1725964;81;21147;-76
2021/06/14 09:03:47;;;;;;;3.52;3.22;;;;;;;22.64;66.84;99519.61;1736209;82;21109;-76
2021/06/14 09:06:14;;;;;;;6.87;3.98;;;;;;;22.77;66.31;99528.97;1710503;82;21059;-77
2021/06/14 09:08:41;;;;;;;7.47;4.05;;;;;;;22.83;65.61;99530.35;1738485;81;21550;-76
2021/06/14 09:11:11;;;;;;;4.85;2.95;;;;;;;22.88;65.67;99532.89;1711055;82;21050;-77
2021/06/14 09:13:38;;;;;;;5.33;3.00;;;;;;;23.02;65.92;99538.13;1745555;81;21027;-77
2021/06/14 09:16:13;;;;;;;3.20;2.90;;;;;;;23.12;65.16;99539.06;1767686;81;21124;-75
2021/06/14 09:18:42;;;;;;;5.08;3.50;;;;;;;23.23;64.69;99544.37;1749892;81;21568;-74
2021/06/14 09:21:16;;;;;;;10.98;3.65;;;;;;;23.27;64.04;99545.88;1762866;81;20982;-75
2021/06/14 09:23:52;;;;;;;3.52;3.00;;;;;;;23.29;64.63;99540.86;1774192;80;21534;-77
2021/06/14 09:26:36;;;;;;;3.47;3.17;;;;;;;23.37;63.89;99540.77;1774460;80;20982;-76
2021/06/14 09:29:15;;;;;;;3.17;2.98;;;;;;;23.41;63.82;99538.14;1757675;80;21222;-74
2021/06/14 09:32:03;;;;;;;3.02;2.83;;;;;;;23.39;63.42;99541.81;1774083;80;21013;-75
2021/06/14 09:34:41;;;;;;;7.37;3.30;;;;;;;23.35;63.66;99549.93;1774571;79;20949;-76
2021/06/14 09:37:12;;;;;;;7.03;3.45;;;;;;;23.39;63.68;99540.44;1741814;80;20980;-75
2021/06/14 09:39:46;;;;;;;3.98;2.90;;;;;;;23.43;63.26;99545.48;1739927;80;21084;-77
2021/06/14 09:42:22;;;;;;;5.17;3.02;;;;;;;23.51;64.20;99539.13;1752808;80;21123;-76
2021/06/14 09:44:53;;;;;;;3.62;3.22;;;;;;;23.55;62.63;99536.52;1774846;80;21017;-76
2021/06/14 09:47:20;;;;;;;6.05;3.30;;;;;;;23.45;62.65;99537.16;1771382;80;21487;-75
2021/06/14 09:50:06;;;;;;;3.77;3.17;;;;;;;23.38;63.00;99535.52;1773436;80;20941;-76
2021/06/14 09:52:32;;;;;;;4.25;3.02;;;;;;;23.35;63.55;99545.01;1768441;80;22164;-74
2021/06/14 09:55:15;;;;;;;3.42;3.12;;;;;;;23.40;63.97;99549.69;1745526;81;21752;-75
2021/06/14 09:57:40;;;;;;;5.05;3.92;;;;;;;23.51;63.50;99545.18;1765689;81;20871;-75
2021/06/14 10:00:12;;;;;;;3.37;3.08;;;;;;;23.66;62.86;99544.53;1760576;81;21007;-75
2021/06/14 10:02:38;;;;;;;7.20;3.27;;;;;;;23.81;61.32;99547.44;1724082;81;21518;-75
2021/06/14 10:05:17;;;;;;;3.47;3.20;;;;;;;23.93;61.30;99552.16;1744275;81;21082;-75
2021/06/14 10:07:50;;;;;;;2.65;2.45;;;;;;;24.00;60.89;99540.58;1739295;81;21256;-82
2021/06/14 10:10:25;;;;;;;2.42;2.30;;;;;;;24.05;60.48;99537.04;1741877;81;21504;-79
2021/06/14 10:12:56;;;;;;;5.35;2.92;;;;;;;24.11;60.64;99548.05;1693207;82;21584;-87
2021/06/14 10:15:38;;;;;;;4.25;2.70;;;;;;;24.12;60.20;99548.84;1716386;82;21129;-84
2021/06/14 10:18:10;;;;;;;2.95;2.75;;;;;;;24.13;60.16;99541.61;1740703;81;21135;-86
2021/06/14 10:20:38;;;;;;;4.55;2.85;;;;;;;24.25;59.98;99549.91;1741698;82;21473;-81
2021/06/14 10:23:07;;;;;;;3.27;3.05;;;;;;;24.32;59.68;99554.81;1752648;81;21001;-81
2021/06/14 10:25:38;;;;;;;5.62;3.33;;;;;;;24.35;59.33;99551.96;1727268;82;20955;-81
2021/06/14 10:28:06;;;;;;;4.87;3.60;;;;;;;24.29;58.96;99549.44;1712263;82;21621;-80
2021/06/14 10:30:33;;;;;;;3.47;2.85;;;;;;;24.27;59.40;99548.16;1745480;81;21037;-79
2021/06/14 10:33:00;;;;;;;4.17;2.80;;;;;;;24.38;59.60;99545.19;1744163;81;21973;-77
2021/06/14 10:35:26;;;;;;;3.85;3.00;;;;;;;24.52;59.54;99547.58;1726555;82;21038;-80
2021/06/14 10:37:54;;;;;;;4.03;3.45;;;;;;;24.60;59.11;99552.17;1741421;82;21029;-78
2021/06/14 10:40:26;;;;;;;3.33;2.98;;;;;;;24.62;58.98;99556.16;1741366;82;20983;-81
2021/06/14 10:42:54;;;;;;;3.40;3.13;;;;;;;24.64;59.05;99553.88;1718552;82;21078;-75
2021/06/14 10:45:24;;;;;;;4.42;2.90;;;;;;;24.70;58.19;99554.42;1740253;81;22203;-78
2021/06/14 10:47:51;;;;;;;3.80;3.20;;;;;;;24.74;55.66;99544.34;1764555;81;21041;-77
2021/06/14 10:50:23;;;;;;;4.47;2.62;;;;;;;24.79;56.22;99541.92;1745970;81;21026;-76
2021/06/14 10:52:50;;;;;;;3.70;2.80;;;;;;;24.83;56.07;99543.64;1698213;83;21034;-76
2021/06/14 10:55:29;;;;;;;10.53;3.92;;;;;;;24.94;56.10;99550.86;1638576;85;21019;-76
2021/06/14 10:57:56;;;;;;;4.80;2.92;;;;;;;25.10;55.80;99538.75;1681542;85;21134;-77
2021/06/14 11:00:29;;;;;;;7.33;3.30;;;;;;;25.34;54.35;99543.92;1612579;86;20998;-82
2021/06/14 11:02:57;;;;;;;;;;;;;;;25.52;54.22;99549.33;1614448;86;20994;-78
2021/06/14 11:05:35;;;;;;;4.05;3.00;;;;;;;25.71;54.34;99543.20;1633687;86;20178;-76
2021/06/14 11:08:22;;;;;;;2.98;2.70;;;;;;;25.82;53.14;99549.77;1658205;85;21603;-76
2021/06/14 11:11:02;;;;;;;3.17;2.50;;;;;;;25.76;53.88;99538.20;1650546;85;21029;-77
2021/06/14 11:13:28;;;;;;;10.58;3.05;;;;;;;25.93;53.42;99543.95;1667757;85;20977;-75
2021/06/14 11:16:02;;;;;;;3.87;3.05;;;;;;;26.04;52.78;99548.56;1719517;83;21567;-76
2021/06/14 11:18:30;;;;;;;3.87;2.92;;;;;;;26.14;51.79;99543.08;1652794;85;21073;-76
2021/06/14 11:21:18;;;;;;;3.75;3.42;;;;;;;26.18;52.50;99547.33;1703577;83;21050;-77
2021/06/14 11:23:49;;;;;;;13.90;4.47;;;;;;;26.04;52.75;99547.18;1706254;83;21094;-83
2021/06/14 11:26:27;;;;;;;4.35;3.42;;;;;;;25.94;52.79;99545.56;1679727;84;21030;-73
2021/06/14 11:28:54;;;;;;;6.42;3.52;;;;;;;26.01;52.95;99552.61;1687730;83;21034;-89
2021/06/14 11:31:25;;;;;;;4.10;2.92;;;;;;;25.97;52.14;99551.73;1713458;83;21198;-86
2021/06/14 11:33:58;;;;;;;4.17;2.40;;;;;;;25.94;52.19;99549.12;1713561;83;21571;-84
2021/06/14 11:36:27;;;;;;;4.15;2.62;;;;;;;25.99;52.15;99542.54;1689236;83;21322;-86
2021/06/14 11:38:55;;;;;;;5.78;3.62;;;;;;;26.12;52.87;99539.91;1667761;85;21550;-85
2021/06/14 11:41:33;;;;;;;3.55;2.52;;;;;;;26.29;52.55;99531.84;1633881;86;20962;-86
2021/06/14 11:44:28;;;;;;;9.68;3.22;;;;;;;26.50;52.45;99532.35;1657204;86;21066;-76
2021/06/14 11:47:13;;;;;;;2.87;2.67;;;;;;;26.75;51.66;99535.67;1657259;86;21094;-76
2021/06/14 11:49:43;;;;;;;8.80;3.12;;;;;;;26.92;50.02;99527.56;1656908;85;21838;-74